地図

経路データ

SID SEASON NUMBER BASIN SUBBASIN NAME ISO_TIME NATURE LAT LON WMO_WIND WMO_PRES WMO_AGENCY TRACK_TYPE DIST2LAND LANDFALL IFLAG USA_AGENCY USA_ATCF_ID USA_LAT USA_LON USA_RECORD USA_STATUS USA_WIND USA_PRES USA_SSHS USA_R34_NE USA_R34_SE USA_R34_SW USA_R34_NW USA_R50_NE USA_R50_SE USA_R50_SW USA_R50_NW USA_R64_NE USA_R64_SE USA_R64_SW USA_R64_NW USA_POCI USA_ROCI USA_RMW USA_EYE TOKYO_LAT TOKYO_LON TOKYO_GRADE TOKYO_WIND TOKYO_PRES TOKYO_R50_DIR TOKYO_R50_LONG TOKYO_R50_SHORT TOKYO_R30_DIR TOKYO_R30_LONG TOKYO_R30_SHORT TOKYO_LAND CMA_LAT CMA_LON CMA_CAT CMA_WIND CMA_PRES HKO_LAT HKO_LON HKO_CAT HKO_WIND HKO_PRES NEWDELHI_LAT NEWDELHI_LON NEWDELHI_GRADE NEWDELHI_WIND NEWDELHI_PRES NEWDELHI_CI NEWDELHI_DP NEWDELHI_POCI REUNION_LAT REUNION_LON REUNION_TYPE REUNION_WIND REUNION_PRES REUNION_TNUM REUNION_CI REUNION_RMW REUNION_R34_NE REUNION_R34_SE REUNION_R34_SW REUNION_R34_NW REUNION_R50_NE REUNION_R50_SE REUNION_R50_SW REUNION_R50_NW REUNION_R64_NE REUNION_R64_SE REUNION_R64_SW REUNION_R64_NW BOM_LAT BOM_LON BOM_TYPE BOM_WIND BOM_PRES BOM_TNUM BOM_CI BOM_RMW BOM_R34_NE BOM_R34_SE BOM_R34_SW BOM_R34_NW BOM_R50_NE BOM_R50_SE BOM_R50_SW BOM_R50_NW BOM_R64_NE BOM_R64_SE BOM_R64_SW BOM_R64_NW BOM_ROCI BOM_POCI BOM_EYE BOM_POS_METHOD BOM_PRES_METHOD NADI_LAT NADI_LON NADI_CAT NADI_WIND NADI_PRES WELLINGTON_LAT WELLINGTON_LON WELLINGTON_WIND WELLINGTON_PRES DS824_LAT DS824_LON DS824_STAGE DS824_WIND DS824_PRES TD9636_LAT TD9636_LON TD9636_STAGE TD9636_WIND TD9636_PRES TD9635_LAT TD9635_LON TD9635_WIND TD9635_PRES TD9635_ROCI NEUMANN_LAT NEUMANN_LON NEUMANN_CLASS NEUMANN_WIND NEUMANN_PRES MLC_LAT MLC_LON MLC_CLASS MLC_WIND MLC_PRES USA_GUST BOM_GUST BOM_GUST_PER REUNION_GUST REUNION_GUST_PER USA_SEAHGT USA_SEARAD_NE USA_SEARAD_SE USA_SEARAD_SW USA_SEARAD_NW STORM_SPEED STORM_DIR
1992185N13265 1992 46 EP MM DARBY 1992-07-02 12:00:00 TS 12.5000 -95.0000 25 1009 hurdat_epa main 373 373 O_____________ hurdat_epa EP051992 12.5000 -95.0000 TD 25 1009 -1 9 256
1992185N13265 1992 46 EP MM DARBY 1992-07-02 15:00:00 TS 12.3901 -95.4501 main 377 374 P_____________ EP051992 12.3901 -95.4501 TD 25 1008 -1 9 257
1992185N13265 1992 46 EP MM DARBY 1992-07-02 18:00:00 TS 12.3000 -95.9000 25 1008 hurdat_epa main 377 370 O_____________ hurdat_epa EP051992 12.3000 -95.9000 TD 25 1008 -1 9 260
1992185N13265 1992 46 EP MM DARBY 1992-07-02 21:00:00 TS 12.2424 -96.3500 main 382 380 P_____________ EP051992 12.2424 -96.3500 TD 27 1007 -1 9 264
1992185N13265 1992 46 EP MM DARBY 1992-07-03 00:00:00 TS 12.2000 -96.8000 30 1007 hurdat_epa main 381 381 O_____________ hurdat_epa EP051992 12.2000 -96.8000 TD 30 1007 -1 9 265
1992185N13265 1992 46 EP MM DARBY 1992-07-03 03:00:00 TS 12.1650 -97.2574 main 388 388 P_____________ EP051992 12.1650 -97.2574 TD 30 1006 -1 9 264
1992185N13265 1992 46 EP MM DARBY 1992-07-03 06:00:00 TS 12.1000 -97.7000 30 1006 hurdat_epa main 409 409 O_____________ hurdat_epa EP051992 12.1000 -97.7000 TD 30 1006 -1 9 256
1992185N13265 1992 46 EP MM DARBY 1992-07-03 09:00:00 TS 11.9649 -98.1075 main 434 434 P_____________ EP051992 11.9649 -98.1075 TD 32 1005 -1 8 249
1992185N13265 1992 46 EP MM DARBY 1992-07-03 12:00:00 TS 11.8000 -98.5000 35 1004 hurdat_epa main 472 472 O_____________ hurdat_epa EP051992 11.8000 -98.5000 TS 35 1004 0 8 247
1992185N13265 1992 46 EP MM DARBY 1992-07-03 15:00:00 TS 11.6424 -98.9000 main 506 506 P_____________ EP051992 11.6424 -98.9000 TS 40 1003 0 8 249
1992185N13265 1992 46 EP MM DARBY 1992-07-03 18:00:00 TS 11.5000 -99.3000 45 1002 hurdat_epa main 529 529 O_____________ hurdat_epa EP051992 11.5000 -99.3000 TS 45 1002 0 8 249
1992185N13265 1992 46 EP MM DARBY 1992-07-03 21:00:00 TS 11.3399 -99.6927 main 564 564 P_____________ EP051992 11.3399 -99.6927 TS 47 1000 0 8 256
1992185N13265 1992 46 EP MM DARBY 1992-07-04 00:00:00 TS 11.3000 -100.100 50 999 hurdat_epa main 581 578 O_____________ hurdat_epa EP051992 11.3000 -100.100 TS 50 999 0 8 278
1992185N13265 1992 46 EP MM DARBY 1992-07-04 03:00:00 TS 11.4599 -100.535 main 575 561 P_____________ EP051992 11.4599 -100.535 TS 50 998 0 10 300
1992185N13265 1992 46 EP MM DARBY 1992-07-04 06:00:00 TS 11.8000 -101.000 50 997 hurdat_epa main 566 536 O_____________ hurdat_epa EP051992 11.8000 -101.000 TS 50 997 0 12 311
1992185N13265 1992 46 EP MM DARBY 1992-07-04 09:00:00 TS 12.2547 -101.455 main 529 501 P_____________ EP051992 12.2547 -101.455 TS 52 995 0 14 316
1992185N13265 1992 46 EP MM DARBY 1992-07-04 12:00:00 TS 12.8000 -102.000 55 994 hurdat_epa main 501 475 O_____________ hurdat_epa EP051992 12.8000 -102.000 TS 55 994 0 16 312
1992185N13265 1992 46 EP MM DARBY 1992-07-04 15:00:00 TS 13.3424 -102.698 main 479 456 P_____________ EP051992 13.3424 -102.698 TS 57 992 0 18 307
1992185N13265 1992 46 EP MM DARBY 1992-07-04 18:00:00 TS 13.9000 -103.500 60 991 hurdat_epa main 459 436 O_____________ hurdat_epa EP051992 13.9000 -103.500 TS 60 991 0 20 305
1992185N13265 1992 46 EP MM DARBY 1992-07-04 21:00:00 TS 14.4648 -104.335 main 429 411 P_____________ EP051992 14.4648 -104.335 TS 62 989 0 20 304
1992185N13265 1992 46 EP MM DARBY 1992-07-05 00:00:00 TS 15.0000 -105.200 65 987 hurdat_epa main 411 406 O_____________ hurdat_epa EP051992 15.0000 -105.200 HU 65 987 1 19 301
1992185N13265 1992 46 EP MM DARBY 1992-07-05 03:00:00 TS 15.4648 -106.058 main 418 416 P_____________ EP051992 15.4648 -106.058 HU 70 985 1 19 299
1992185N13265 1992 46 EP MM DARBY 1992-07-05 06:00:00 TS 15.9000 -106.900 75 984 hurdat_epa main 431 427 O_____________ hurdat_epa EP051992 15.9000 -106.900 HU 75 984 1 18 299
1992185N13265 1992 46 EP MM DARBY 1992-07-05 09:00:00 TS 16.3422 -107.715 main 446 446 P_____________ EP051992 16.3422 -107.715 HU 80 982 1 18 300
1992185N13265 1992 46 EP MM DARBY 1992-07-05 12:00:00 TS 16.8000 -108.500 85 980 hurdat_epa main 468 468 O_____________ hurdat_epa EP051992 16.8000 -108.500 HU 85 980 2 18 303
1992185N13265 1992 46 EP MM DARBY 1992-07-05 15:00:00 TS 17.2921 -109.258 main 500 500 P_____________ EP051992 17.2921 -109.258 HU 90 978 2 18 305
1992185N13265 1992 46 EP MM DARBY 1992-07-05 18:00:00 TS 17.8000 -110.000 95 976 hurdat_epa main 533 519 O_____________ hurdat_epa EP051992 17.8000 -110.000 HU 95 976 2 17 305
1992185N13265 1992 46 EP MM DARBY 1992-07-05 21:00:00 TS 18.2922 -110.751 main 521 484 P_____________ EP051992 18.2922 -110.751 HU 97 974 3 17 305
1992185N13265 1992 46 EP MM DARBY 1992-07-06 00:00:00 TS 18.8000 -111.500 100 972 hurdat_epa main 484 457 O_____________ hurdat_epa EP051992 18.8000 -111.500 HU 100 972 3 18 307
1992185N13265 1992 46 EP MM DARBY 1992-07-06 03:00:00 TS 19.3496 -112.243 main 462 450 P_____________ EP051992 19.3496 -112.243 HU 102 970 3 18 308
1992185N13265 1992 46 EP MM DARBY 1992-07-06 06:00:00 TS 19.9000 -113.000 105 968 hurdat_epa main 457 456 O_____________ hurdat_epa EP051992 19.9000 -113.000 HU 105 968 3 18 306
1992185N13265 1992 46 EP MM DARBY 1992-07-06 09:00:00 TS 20.4148 -113.800 main 481 481 P_____________ EP051992 20.4148 -113.800 HU 102 968 3 18 304
1992185N13265 1992 46 EP MM DARBY 1992-07-06 12:00:00 TS 20.9000 -114.600 100 968 hurdat_epa main 494 491 O_____________ hurdat_epa EP051992 20.9000 -114.600 HU 100 968 3 17 303
1992185N13265 1992 46 EP MM DARBY 1992-07-06 15:00:00 TS 21.3571 -115.358 main 499 498 P_____________ EP051992 21.3571 -115.358 HU 97 968 3 17 303
1992185N13265 1992 46 EP MM DARBY 1992-07-06 18:00:00 TS 21.8000 -116.100 95 969 hurdat_epa main 520 520 O_____________ hurdat_epa EP051992 21.8000 -116.100 HU 95 969 2 17 303
1992185N13265 1992 46 EP MM DARBY 1992-07-06 21:00:00 TS 22.2647 -116.858 main 554 554 P_____________ EP051992 22.2648 -116.858 HU 92 970 2 17 303
1992185N13265 1992 46 EP MM DARBY 1992-07-07 00:00:00 TS 22.7000 -117.600 90 971 hurdat_epa main 597 593 O_____________ hurdat_epa EP051992 22.7000 -117.600 HU 90 971 2 16 301
1992185N13265 1992 46 EP MM DARBY 1992-07-07 03:00:00 TS 23.0797 -118.315 main 602 602 P_____________ EP051992 23.0797 -118.315 HU 87 972 2 15 299
1992185N13265 1992 46 EP MM DARBY 1992-07-07 06:00:00 TS 23.4000 -119.000 85 973 hurdat_epa main 625 623 O_____________ hurdat_epa EP051992 23.4000 -119.000 HU 85 973 2 14 296
1992185N13265 1992 46 EP MM DARBY 1992-07-07 09:00:00 TS 23.6797 -119.665 main 648 648 P_____________ EP051992 23.6797 -119.665 HU 80 976 1 13 293
1992185N13265 1992 46 EP MM DARBY 1992-07-07 12:00:00 TS 23.9000 -120.300 75 979 hurdat_epa main 679 679 O_____________ hurdat_epa EP051992 23.9000 -120.300 HU 75 979 1 12 288
1992185N13265 1992 46 EP MM DARBY 1992-07-07 15:00:00 TS 24.0649 -120.930 main 713 713 P_____________ EP051992 24.0649 -120.930 HU 70 982 1 11 285
1992185N13265 1992 46 EP MM DARBY 1992-07-07 18:00:00 TS 24.2000 -121.500 65 986 hurdat_epa main 757 757 O_____________ hurdat_epa EP051992 24.2000 -121.500 HU 65 986 1 10 286
1992185N13265 1992 46 EP MM DARBY 1992-07-07 21:00:00 TS 24.3347 -121.980 main 795 789 P_____________ EP051992 24.3347 -121.980 HU 62 988 0 9 290
1992185N13265 1992 46 EP MM DARBY 1992-07-08 00:00:00 TS 24.5000 -122.400 60 991 hurdat_epa main 820 820 O_____________ hurdat_epa EP051992 24.5000 -122.400 TS 60 991 0 9 298
1992185N13265 1992 46 EP MM DARBY 1992-07-08 03:00:00 TS 24.7348 -122.808 main 846 846 P_____________ EP051992 24.7348 -122.808 TS 55 993 0 9 305
1992185N13265 1992 46 EP MM DARBY 1992-07-08 06:00:00 TS 25.0000 -123.200 50 996 hurdat_epa main 870 870 O_____________ hurdat_epa EP051992 25.0000 -123.200 TS 50 996 0 9 306
1992185N13265 1992 46 EP MM DARBY 1992-07-08 09:00:00 TS 25.2499 -123.600 main 899 895 P_____________ EP051992 25.2499 -123.600 TS 45 998 0 9 305
1992185N13265 1992 46 EP MM DARBY 1992-07-08 12:00:00 TS 25.5000 -124.000 40 1000 hurdat_epa main 926 926 O_____________ hurdat_epa EP051992 25.5000 -124.000 TS 40 1000 0 9 304
1992185N13265 1992 46 EP MM DARBY 1992-07-08 15:00:00 TS 25.7425 -124.423 main 958 956 P_____________ EP051992 25.7425 -124.423 TS 37 1001 0 9 305
1992185N13265 1992 46 EP MM DARBY 1992-07-08 18:00:00 TS 26.0000 -124.800 35 1003 hurdat_epa main 984 984 O_____________ hurdat_epa EP051992 26.0000 -124.800 TS 35 1003 0 8 313
1992185N13265 1992 46 EP MM DARBY 1992-07-08 21:00:00 TS 26.2998 -125.080 main 995 983 P_____________ EP051992 26.2998 -125.080 TS 32 1004 -1 8 323
1992185N13265 1992 46 EP MM DARBY 1992-07-09 00:00:00 TS 26.6000 -125.300 30 1005 hurdat_epa main 983 968 O_____________ hurdat_epa EP051992 26.6000 -125.300 TD 30 1005 -1 7 325
1992185N13265 1992 46 EP MM DARBY 1992-07-09 03:00:00 TS 26.8500 -125.515 main 972 953 P_____________ EP051992 26.8500 -125.515 TD 30 1005 -1 6 324
1992185N13265 1992 46 EP MM DARBY 1992-07-09 06:00:00 TS 27.1000 -125.700 30 1006 hurdat_epa main 953 929 O_____________ hurdat_epa EP051992 27.1000 -125.700 TD 30 1006 -1 6 330
1992185N13265 1992 46 EP MM DARBY 1992-07-09 09:00:00 TS 27.3850 -125.865 main 934 911 P_____________ EP051992 27.3850 -125.865 TD 30 1006 -1 7 336
1992185N13265 1992 46 EP MM DARBY 1992-07-09 12:00:00 TS 27.7000 -126.000 30 1007 hurdat_epa main 911 889 O_____________ hurdat_epa EP051992 27.7000 -126.000 TD 30 1007 -1 7 342
1992185N13265 1992 46 EP MM DARBY 1992-07-09 15:00:00 TS 28.0425 -126.108 main 889 859 P_____________ EP051992 28.0425 -126.108 TD 27 1008 -1 7 346
1992185N13265 1992 46 EP MM DARBY 1992-07-09 18:00:00 TS 28.4000 -126.200 25 1009 hurdat_epa main 859 839 O_____________ hurdat_epa EP051992 28.4000 -126.200 TD 25 1009 -1 7 347
1992185N13265 1992 46 EP MM DARBY 1992-07-09 21:00:00 TS 28.7525 -126.297 main 830 811 P_____________ EP051992 28.7525 -126.297 TD 25 1009 -1 7 346
1992185N13265 1992 46 EP MM DARBY 1992-07-10 00:00:00 TS 29.1000 -126.400 25 1010 hurdat_epa main 811 O_____________ hurdat_epa EP051992 29.1000 -126.400 TD 25 1010 -1 7 346

IBTrACS Databaseについて

本データベースは、米国NOAAが公開する1842年以降の世界の熱帯低気圧のベストトラックデータアーカイブInternational Best Track Archive for Climate Stewardship (IBTrACS)を、ウェブで閲覧しやすい形式に変換したものです。

最終更新日:2021-10-27